createdAt,value
2022-12-03T00:02:27.178Z,78.03
2022-12-03T00:05:20.854Z,82.10
2022-12-03T00:07:48.623Z,90.68
2022-12-03T00:10:17.141Z,85.43
2022-12-03T00:13:09.757Z,95.07
2022-12-03T00:15:37.746Z,81.93
2022-12-03T00:18:05.616Z,87.83
2022-12-03T00:20:33.672Z,82.95
2022-12-03T00:23:02.489Z,74.43
2022-12-03T00:25:30.591Z,69.88
2022-12-03T00:27:58.534Z,76.45
2022-12-03T00:30:26.453Z,68.53
2022-12-03T00:32:54.138Z,72.07
2022-12-03T00:35:22.360Z,78.82
2022-12-03T00:37:50.148Z,75.90
2022-12-03T00:40:18.314Z,63.22
2022-12-03T00:42:46.069Z,64.43
2022-12-03T00:45:14.288Z,71.82
2022-12-03T00:47:41.992Z,62.00
2022-12-03T00:50:10.480Z,60.38
2022-12-03T00:52:39.661Z,48.63
2022-12-03T00:55:08.234Z,51.70
2022-12-03T00:57:35.875Z,54.30
2022-12-03T01:00:34.081Z,58.58
2022-12-03T01:03:02.094Z,55.75
2022-12-03T01:05:30.404Z,50.88
2022-12-03T01:08:54.254Z,47.37
2022-12-03T01:15:00.531Z,49.72
2022-12-03T01:17:28.686Z,44.95
2022-12-03T01:20:52.850Z,47.58
2022-12-03T01:23:20.752Z,51.33
2022-12-03T01:25:48.229Z,50.38
2022-12-03T01:28:17.281Z,49.42
2022-12-03T01:33:55.539Z,49.65
2022-12-03T01:36:23.143Z,47.43
2022-12-03T01:38:51.212Z,48.47
2022-12-03T01:41:21.175Z,50.95
2022-12-03T01:43:53.798Z,55.83
2022-12-03T01:46:25.432Z,58.15
2022-12-03T01:48:55.975Z,55.93
2022-12-03T01:51:23.665Z,58.05
2022-12-03T01:53:52.538Z,55.13
2022-12-03T01:56:20.302Z,48.63
2022-12-03T01:58:48.747Z,52.85
2022-12-03T02:01:19.392Z,52.30
2022-12-03T02:03:47.695Z,50.40
2022-12-03T02:06:24.693Z,58.30
2022-12-03T02:08:59.617Z,56.45
2022-12-03T02:11:36.645Z,45.88
2022-12-03T02:14:09.392Z,47.47
2022-12-03T02:16:39.348Z,42.88
2022-12-03T02:19:34.821Z,43.83
2022-12-03T02:22:24.884Z,51.05
2022-12-03T02:25:05.247Z,53.47
2022-12-03T02:27:32.980Z,45.73
2022-12-03T02:30:00.884Z,49.22
2022-12-03T02:32:54.454Z,53.42
2022-12-03T02:35:25.507Z,47.50
2022-12-03T02:38:17.347Z,51.50
2022-12-03T02:40:47.557Z,44.83
2022-12-03T02:43:17.005Z,42.75
2022-12-03T02:45:56.769Z,45.88
2022-12-03T02:48:28.645Z,42.03
2022-12-03T02:51:01.529Z,45.75
2022-12-03T02:53:33.631Z,46.90
2022-12-03T02:56:03.631Z,52.03
2022-12-03T02:58:34.374Z,45.67
2022-12-03T03:01:04.593Z,45.78
2022-12-03T03:03:33.858Z,44.10
2022-12-03T03:06:03.058Z,41.03
2022-12-03T03:08:31.276Z,40.95
2022-12-03T03:11:01.852Z,44.78
2022-12-03T03:13:31.181Z,41.50
2022-12-03T03:15:59.758Z,47.35
2022-12-03T03:18:27.464Z,39.87
2022-12-03T03:20:55.564Z,47.75
2022-12-03T03:23:25.070Z,44.33
2022-12-03T03:26:18.124Z,46.38
2022-12-03T03:28:50.205Z,40.88
2022-12-03T03:31:23.177Z,44.47
2022-12-03T03:39:16.769Z,42.08
2022-12-03T03:41:46.699Z,45.85
2022-12-03T03:44:14.868Z,48.33
2022-12-03T03:46:43.781Z,49.13
2022-12-03T03:49:12.730Z,44.22
2022-12-03T03:51:40.488Z,47.85
2022-12-03T03:54:08.835Z,46.72
2022-12-03T03:56:36.551Z,44.70
2022-12-03T03:59:30.685Z,44.17
2022-12-03T04:01:58.345Z,50.22
2022-12-03T04:04:27.653Z,46.65
2022-12-03T04:07:01.251Z,46.40
2022-12-03T04:09:29.273Z,44.00
2022-12-03T04:12:16.206Z,45.53
2022-12-03T04:14:44.065Z,49.28
2022-12-03T04:17:11.628Z,47.50
2022-12-03T04:19:39.544Z,59.33
2022-12-03T04:22:25.380Z,60.83
2022-12-03T04:25:13.316Z,59.67
2022-12-03T04:27:59.565Z,61.65
2022-12-03T04:30:27.510Z,61.72
2022-12-03T04:33:13.742Z,52.72
2022-12-03T04:35:44.549Z,54.03
2022-12-03T04:38:13.529Z,52.87
2022-12-03T04:41:00.867Z,47.28
2022-12-03T04:43:29.070Z,51.72
2022-12-03T04:45:57.006Z,51.45
2022-12-03T04:48:27.525Z,50.95
2022-12-03T04:50:55.691Z,51.47
2022-12-03T04:53:23.127Z,61.25
2022-12-03T04:55:54.418Z,52.95
2022-12-03T04:58:22.140Z,55.28
2022-12-03T05:00:50.026Z,54.05
2022-12-03T05:03:17.917Z,52.27
2022-12-03T05:05:46.540Z,51.75
2022-12-03T05:08:14.381Z,58.70
2022-12-03T05:11:34.933Z,62.35
2022-12-03T05:14:02.729Z,56.78
2022-12-03T05:16:30.941Z,67.47
2022-12-03T05:18:58.873Z,66.57
2022-12-03T05:21:27.012Z,68.53
2022-12-03T05:23:54.883Z,75.32
2022-12-03T05:26:23.111Z,70.95
2022-12-03T05:28:50.996Z,68.43
2022-12-03T05:31:19.038Z,71.78
2022-12-03T05:33:46.922Z,91.50
2022-12-03T05:36:14.922Z,124.32
2022-12-03T05:38:42.591Z,82.72
2022-12-03T05:41:34.640Z,67.37
2022-12-03T05:44:02.377Z,71.47
2022-12-03T05:46:30.500Z,86.65
2022-12-03T05:48:58.387Z,67.32
2022-12-03T05:51:26.753Z,71.28
2022-12-03T05:53:54.422Z,78.20
2022-12-03T05:56:22.610Z,77.07
2022-12-03T05:58:50.234Z,77.57
2022-12-03T06:01:18.441Z,69.43
2022-12-03T06:03:46.256Z,78.95
2022-12-03T06:06:14.295Z,75.90
2022-12-03T06:08:42.253Z,77.28
2022-12-03T06:11:10.315Z,80.03
2022-12-03T06:13:37.968Z,84.40
2022-12-03T06:16:06.368Z,75.28
2022-12-03T06:18:34.055Z,140.37
2022-12-03T06:21:02.011Z,111.82
2022-12-03T06:23:29.739Z,92.00
2022-12-03T06:25:57.807Z,79.28
2022-12-03T06:28:25.675Z,74.65
2022-12-03T06:30:53.736Z,69.40
2022-12-03T06:33:21.426Z,82.60
2022-12-03T06:35:49.559Z,85.70
2022-12-03T06:38:17.428Z,84.65
2022-12-03T06:40:45.500Z,71.35
2022-12-03T06:43:13.367Z,67.03
2022-12-03T06:45:47.412Z,63.53
2022-12-03T06:48:19.009Z,62.80
2022-12-03T06:50:47.340Z,68.30
2022-12-03T06:53:40.065Z,78.55
2022-12-03T06:56:08.340Z,81.77
2022-12-03T06:58:36.053Z,86.40
2022-12-03T07:01:04.338Z,71.00
2022-12-03T07:03:32.020Z,60.25
2022-12-03T07:06:00.452Z,60.95
2022-12-03T07:08:31.374Z,65.20
2022-12-03T07:10:59.630Z,63.75
2022-12-03T07:13:27.473Z,49.75
2022-12-03T07:15:55.961Z,53.80
2022-12-03T07:18:23.676Z,52.30
2022-12-03T07:20:51.692Z,62.37
2022-12-03T07:23:20.735Z,56.20
2022-12-03T07:25:48.955Z,53.45
2022-12-03T07:28:16.700Z,66.45
2022-12-03T07:30:44.897Z,55.72
2022-12-03T07:33:43.123Z,45.43
2022-12-03T07:36:11.563Z,49.90
2022-12-03T07:38:39.244Z,43.90
2022-12-03T07:41:07.827Z,50.65
2022-12-03T07:43:35.567Z,46.22
2022-12-03T07:46:04.896Z,66.00
2022-12-03T07:48:32.695Z,46.33
2022-12-03T07:51:57.222Z,44.08
2022-12-03T07:54:25.180Z,54.85
2022-12-03T07:56:57.921Z,57.05
2022-12-03T07:59:29.442Z,56.10
2022-12-03T08:01:57.475Z,61.22
2022-12-03T08:04:54.471Z,88.95
2022-12-03T08:07:24.514Z,59.35
2022-12-03T08:09:52.865Z,46.83
2022-12-03T08:12:40.495Z,46.60
2022-12-03T08:15:13.550Z,62.38
2022-12-03T08:17:43.294Z,47.03
2022-12-03T08:24:25.224Z,45.00
2022-12-03T08:27:47.903Z,95.20
2022-12-03T08:30:18.024Z,93.65
2022-12-03T08:32:46.058Z,69.88
2022-12-03T08:35:19.884Z,70.03
2022-12-03T08:37:48.706Z,61.42
2022-12-03T08:40:23.777Z,70.83
2022-12-03T08:42:51.786Z,262.33
2022-12-03T08:45:41.456Z,64.15
2022-12-03T08:48:32.950Z,77.28
2022-12-03T08:51:25.809Z,40.50
2022-12-03T08:54:15.277Z,40.30
2022-12-03T08:56:45.269Z,62.13
2022-12-03T08:59:57.569Z,51.65
2022-12-03T09:02:45.969Z,46.72
2022-12-03T09:05:32.785Z,54.13
2022-12-03T09:08:01.116Z,41.80
2022-12-03T09:10:28.977Z,44.05
2022-12-03T09:14:18.070Z,47.13
2022-12-03T09:16:48.230Z,71.72
2022-12-03T09:19:16.580Z,68.13
2022-12-03T09:27:09.146Z,79.63
2022-12-03T09:29:36.919Z,72.88
2022-12-03T09:32:05.204Z,45.33
2022-12-03T09:34:38.346Z,126.85
2022-12-03T09:37:06.345Z,65.13
2022-12-03T09:39:34.129Z,66.20
2022-12-03T09:42:03.789Z,73.70
2022-12-03T09:44:33.957Z,68.53
2022-12-03T09:47:04.418Z,75.40
2022-12-03T09:49:37.688Z,77.50
2022-12-03T09:52:06.807Z,57.03
2022-12-03T09:54:35.062Z,61.35
2022-12-03T09:57:04.519Z,60.47
2022-12-03T09:59:34.548Z,54.03
2022-12-03T10:02:03.819Z,58.00
2022-12-03T10:04:32.039Z,257.25
2022-12-03T10:07:00.795Z,238.55
2022-12-03T10:09:30.688Z,124.07
2022-12-03T10:12:00.028Z,59.92
2022-12-03T10:14:28.475Z,58.07
2022-12-03T10:16:57.591Z,53.92
2022-12-03T10:19:31.964Z,86.63
2022-12-03T10:22:00.297Z,52.42
2022-12-03T10:24:36.564Z,45.28
2022-12-03T10:27:30.972Z,49.97
2022-12-03T10:30:00.664Z,52.85
2022-12-03T10:32:44.825Z,47.65
2022-12-03T10:35:17.397Z,46.13
2022-12-03T10:38:23.495Z,51.72
2022-12-03T10:40:52.880Z,50.30
2022-12-03T10:43:25.679Z,54.22
2022-12-03T10:46:18.358Z,62.28
2022-12-03T10:48:46.696Z,57.13
2022-12-03T10:51:21.558Z,53.08
2022-12-03T10:53:51.537Z,40.13
2022-12-03T10:56:25.680Z,42.95
2022-12-03T10:58:55.649Z,64.38
2022-12-03T11:01:26.806Z,56.10
2022-12-03T11:04:40.836Z,37.63
2022-12-03T11:07:26.741Z,39.57
2022-12-03T11:10:00.536Z,44.85
2022-12-03T11:12:35.029Z,42.90
2022-12-03T11:16:19.834Z,50.60
2022-12-03T11:19:16.751Z,121.07
2022-12-03T11:22:06.647Z,78.47
2022-12-03T11:24:39.272Z,56.78
2022-12-03T11:27:16.148Z,76.20
2022-12-03T11:29:54.772Z,43.85
2022-12-03T11:32:46.168Z,48.08
2022-12-03T11:35:15.818Z,41.47
2022-12-03T11:37:43.951Z,54.35
2022-12-03T11:40:17.890Z,49.08
2022-12-03T11:42:47.800Z,43.90
2022-12-03T11:45:41.552Z,54.13
2022-12-03T11:48:15.197Z,47.80
2022-12-03T11:50:57.378Z,37.13
2022-12-03T11:53:54.845Z,44.85
2022-12-03T11:56:28.499Z,35.63
2022-12-03T12:02:39.922Z,34.77
2022-12-03T12:05:32.518Z,37.05
2022-12-03T12:08:43.734Z,35.13
2022-12-03T12:11:28.491Z,52.33
2022-12-03T12:14:13.084Z,156.52
2022-12-03T12:16:50.979Z,76.50
2022-12-03T12:19:31.371Z,128.57
2022-12-03T12:22:25.342Z,179.48
2022-12-03T12:25:04.885Z,61.22
2022-12-03T12:27:39.554Z,82.40
2022-12-03T12:33:42.878Z,36.05
2022-12-03T12:36:12.168Z,31.58
2022-12-03T12:38:44.769Z,42.38
2022-12-03T12:41:12.906Z,30.75
2022-12-03T12:43:41.410Z,35.43
2022-12-03T12:46:46.158Z,37.08
2022-12-03T12:49:10.762Z,37.03
2022-12-03T12:51:51.479Z,38.88
2022-12-03T12:54:19.703Z,30.33
2022-12-03T12:56:53.539Z,28.53
2022-12-03T12:59:24.785Z,33.42
2022-12-03T13:01:52.917Z,33.67
2022-12-03T13:04:24.913Z,35.88
2022-12-03T13:06:54.297Z,52.83
2022-12-03T13:10:00.428Z,65.33
2022-12-03T13:13:24.281Z,46.25
2022-12-03T13:16:10.490Z,226.00
2022-12-03T13:18:53.541Z,120.60
2022-12-03T13:21:48.039Z,44.15
2022-12-03T13:24:37.289Z,51.23
2022-12-03T13:27:32.998Z,59.15
2022-12-03T13:30:07.704Z,58.67
2022-12-03T13:33:41.398Z,38.15
2022-12-03T13:36:15.471Z,41.35
2022-12-03T13:38:45.180Z,40.93
2022-12-03T13:41:40.887Z,61.78
2022-12-03T13:44:21.079Z,40.55
2022-12-03T13:46:48.977Z,36.80
2022-12-03T13:49:22.300Z,49.05
2022-12-03T13:51:51.202Z,44.53
2022-12-03T13:54:22.226Z,41.78
2022-12-03T13:56:50.991Z,38.25
2022-12-03T13:59:26.270Z,40.08
2022-12-03T14:01:54.419Z,35.85
2022-12-03T14:04:22.715Z,40.53
2022-12-03T14:06:50.486Z,51.15
2022-12-03T14:09:18.637Z,54.20
2022-12-03T14:12:06.186Z,55.95
2022-12-03T14:14:34.427Z,67.72
2022-12-03T14:17:02.388Z,74.43
2022-12-03T14:19:31.632Z,71.75
2022-12-03T14:22:00.618Z,59.55
2022-12-03T14:24:28.950Z,56.13
2022-12-03T14:26:56.694Z,57.03
2022-12-03T14:29:25.215Z,112.97
2022-12-03T14:31:52.999Z,77.93
2022-12-03T14:34:21.377Z,89.22
2022-12-03T14:36:49.194Z,62.20
2022-12-03T14:39:17.645Z,60.28
2022-12-03T14:43:00.686Z,60.27
2022-12-03T14:45:30.262Z,70.18
2022-12-03T14:47:57.969Z,70.47
2022-12-03T14:50:26.771Z,63.95
2022-12-03T14:52:54.431Z,66.22
2022-12-03T14:55:22.681Z,70.03
2022-12-03T14:57:50.410Z,70.57
2022-12-03T15:00:49.099Z,75.32
2022-12-03T15:03:17.042Z,67.53
2022-12-03T15:05:45.052Z,74.05
2022-12-03T15:08:17.477Z,67.60
2022-12-03T15:10:45.779Z,67.15
2022-12-03T15:13:15.003Z,60.58
2022-12-03T15:15:43.214Z,63.15
2022-12-03T15:18:10.923Z,79.38
2022-12-03T15:20:40.302Z,80.03
2022-12-03T15:23:13.895Z,85.35
2022-12-03T15:26:35.461Z,97.00
2022-12-03T15:29:03.763Z,121.15
2022-12-03T15:31:37.374Z,66.10
2022-12-03T15:34:05.646Z,63.90
2022-12-03T15:36:33.227Z,59.13
2022-12-03T15:39:01.579Z,57.35
2022-12-03T15:41:29.722Z,67.07
2022-12-03T15:44:01.841Z,61.35
2022-12-03T15:46:31.774Z,66.43
2022-12-03T15:49:00.094Z,68.85
2022-12-03T15:51:28.156Z,62.53
2022-12-03T15:53:56.226Z,64.10
2022-12-03T15:56:23.994Z,57.90
2022-12-03T15:58:53.945Z,54.47
2022-12-03T16:01:22.032Z,62.72
2022-12-03T16:03:50.148Z,61.90
2022-12-03T16:06:43.124Z,61.72
2022-12-03T16:09:11.433Z,77.65
2022-12-03T16:11:39.052Z,81.60
2022-12-03T16:14:07.219Z,77.55
2022-12-03T16:16:34.798Z,101.93
2022-12-03T16:19:06.539Z,108.10
2022-12-03T16:21:49.766Z,123.40
2022-12-03T16:24:17.955Z,98.90
2022-12-03T16:26:46.046Z,112.95
2022-12-03T16:29:15.486Z,110.65
2022-12-03T16:31:43.959Z,101.90
2022-12-03T16:34:13.063Z,97.20
2022-12-03T16:36:40.958Z,99.60
2022-12-03T16:39:09.283Z,121.63
2022-12-03T16:41:37.037Z,129.75
2022-12-03T16:44:06.807Z,106.72
2022-12-03T16:46:34.713Z,101.75
2022-12-03T16:49:04.118Z,98.97
2022-12-03T16:51:31.996Z,79.45
2022-12-03T16:54:00.296Z,82.65
2022-12-03T16:56:28.163Z,72.80
2022-12-03T16:58:56.558Z,78.20
2022-12-03T17:01:24.507Z,81.90
2022-12-03T17:03:52.730Z,80.47
2022-12-03T17:06:20.584Z,95.70
2022-12-03T17:08:50.132Z,90.95
2022-12-03T17:11:18.297Z,83.90
2022-12-03T17:13:47.617Z,75.57
2022-12-03T17:16:15.510Z,79.20
2022-12-03T17:18:43.815Z,77.95
2022-12-03T17:21:11.852Z,65.68
2022-12-03T17:23:40.145Z,66.93
2022-12-03T17:26:08.322Z,67.40
2022-12-03T17:28:36.787Z,69.95
2022-12-03T17:31:04.772Z,84.75
2022-12-03T17:33:33.133Z,85.72
2022-12-03T17:36:01.102Z,74.30
2022-12-03T17:38:32.681Z,84.07
2022-12-03T17:41:03.429Z,71.63
2022-12-03T17:43:31.660Z,76.93
2022-12-03T17:46:00.537Z,80.35
2022-12-03T17:48:31.691Z,86.10
2022-12-03T17:50:59.809Z,77.17
2022-12-03T17:53:28.902Z,75.43
2022-12-03T17:55:56.939Z,72.10
2022-12-03T17:58:27.255Z,80.72
2022-12-03T18:01:00.474Z,76.65
2022-12-03T18:03:31.460Z,109.43
2022-12-03T18:05:59.503Z,112.60
2022-12-03T18:08:28.080Z,111.72
2022-12-03T18:10:56.283Z,102.47
2022-12-03T18:13:24.735Z,117.03
2022-12-03T18:15:52.643Z,102.63
2022-12-03T18:18:20.986Z,96.05
2022-12-03T18:20:48.851Z,109.15
2022-12-03T18:23:17.335Z,126.22
2022-12-03T18:25:45.229Z,121.97
2022-12-03T18:28:13.643Z,109.17
2022-12-03T18:30:41.529Z,100.57
2022-12-03T18:33:09.960Z,122.88
2022-12-03T18:35:37.931Z,154.20
2022-12-03T18:38:14.654Z,128.73
2022-12-03T18:40:44.470Z,137.80
2022-12-03T18:43:13.979Z,137.82
2022-12-03T18:45:42.286Z,128.30
2022-12-03T18:48:19.534Z,144.75
2022-12-03T18:50:49.333Z,153.55
2022-12-03T18:53:19.773Z,173.83
2022-12-03T18:55:48.228Z,182.55
2022-12-03T18:58:19.821Z,123.88
2022-12-03T19:00:47.819Z,144.43
2022-12-03T19:03:17.256Z,132.95
2022-12-03T19:05:45.074Z,141.57
2022-12-03T19:08:15.219Z,169.40
2022-12-03T19:11:02.715Z,176.40
2022-12-03T19:13:30.978Z,205.60
2022-12-03T19:16:05.863Z,183.55
2022-12-03T19:18:34.355Z,184.33
2022-12-03T19:21:08.781Z,159.48
2022-12-03T19:24:23.372Z,134.88
2022-12-03T19:26:46.026Z,117.68
2022-12-03T19:29:18.987Z,120.05
2022-12-03T19:31:47.081Z,102.80
2022-12-03T19:34:15.326Z,94.47
2022-12-03T19:36:43.259Z,117.70
2022-12-03T19:39:11.590Z,99.70
2022-12-03T19:41:41.915Z,88.75
2022-12-03T19:44:14.962Z,123.83
2022-12-03T19:46:43.921Z,112.75
2022-12-03T19:49:12.739Z,102.88
2022-12-03T19:51:40.853Z,93.15
2022-12-03T19:54:11.921Z,93.13
2022-12-03T19:56:40.506Z,94.13
2022-12-03T19:59:09.303Z,103.13
2022-12-03T20:01:41.272Z,98.50
2022-12-03T20:04:11.799Z,83.60
2022-12-03T20:06:45.767Z,93.13
2022-12-03T20:09:18.166Z,89.47
2022-12-03T20:11:51.512Z,83.45
2022-12-03T20:14:24.808Z,101.20
2022-12-03T20:16:52.588Z,102.38
2022-12-03T20:19:24.729Z,98.05
2022-12-03T20:26:33.040Z,119.55
2022-12-03T20:29:06.652Z,122.25
2022-12-03T20:31:35.375Z,115.20
2022-12-03T20:34:04.176Z,101.65
2022-12-03T20:36:32.865Z,96.73
2022-12-03T20:39:03.243Z,91.90
2022-12-03T20:41:31.069Z,87.30
2022-12-03T20:43:58.968Z,79.15
2022-12-03T20:46:36.694Z,74.53
2022-12-03T20:52:34.367Z,63.92
2022-12-03T20:55:11.256Z,64.78
2022-12-03T20:58:02.644Z,73.03
2022-12-03T21:00:31.141Z,68.95
2022-12-03T21:02:58.845Z,70.97
2022-12-03T21:05:27.429Z,75.65
2022-12-03T21:07:55.241Z,83.85
2022-12-03T21:13:54.194Z,61.13
2022-12-03T21:16:52.131Z,58.20
2022-12-03T21:19:15.433Z,58.85
2022-12-03T21:21:43.666Z,59.42
2022-12-03T21:24:12.814Z,60.75
2022-12-03T21:26:41.478Z,64.30
2022-12-03T21:29:10.728Z,63.63
2022-12-03T21:31:40.239Z,65.72
2022-12-03T21:34:08.945Z,60.17
2022-12-03T21:36:37.084Z,61.88
2022-12-03T21:39:06.724Z,62.53
2022-12-03T21:41:35.840Z,61.03
2022-12-03T21:44:29.449Z,68.15
2022-12-03T21:47:10.775Z,92.22
2022-12-03T21:50:32.519Z,56.10
2022-12-03T21:53:05.489Z,57.58
2022-12-03T21:55:33.369Z,55.57
2022-12-03T21:58:01.622Z,52.30
2022-12-03T22:00:33.439Z,50.53
2022-12-03T22:03:01.632Z,50.58
2022-12-03T22:05:29.640Z,51.95
2022-12-03T22:07:57.940Z,53.90
2022-12-03T22:10:25.704Z,54.28
2022-12-03T22:12:54.013Z,55.17
2022-12-03T22:15:21.889Z,57.05
2022-12-03T22:17:50.250Z,54.70
2022-12-03T22:20:18.197Z,49.33
2022-12-03T22:22:46.500Z,48.58
2022-12-03T22:25:14.284Z,50.20
2022-12-03T22:27:42.611Z,51.08
2022-12-03T22:30:10.521Z,53.13
2022-12-03T22:32:38.631Z,49.33
2022-12-03T22:35:07.109Z,48.33
2022-12-03T22:37:35.305Z,45.88
2022-12-03T22:40:06.986Z,44.58
2022-12-03T22:42:38.551Z,44.45
2022-12-03T22:45:06.994Z,42.63
2022-12-03T22:47:34.891Z,41.70
2022-12-03T22:50:02.578Z,45.60
2022-12-03T22:52:31.177Z,42.72
2022-12-03T22:54:58.790Z,39.28
2022-12-03T22:57:26.874Z,33.77
2022-12-03T22:59:54.986Z,35.78
2022-12-03T23:02:23.208Z,34.97
2022-12-03T23:04:56.192Z,36.85
2022-12-03T23:07:24.322Z,37.65
2022-12-03T23:09:53.334Z,39.37
2022-12-03T23:13:38.658Z,38.42
2022-12-03T23:16:06.714Z,40.55
2022-12-03T23:18:34.805Z,31.85
2022-12-03T23:21:02.635Z,36.70
2022-12-03T23:23:30.713Z,36.13
2022-12-03T23:26:04.509Z,36.63
2022-12-03T23:28:34.447Z,35.83
2022-12-03T23:31:02.613Z,33.70
2022-12-03T23:33:36.637Z,35.78
2022-12-03T23:36:07.622Z,34.10
2022-12-03T23:38:35.736Z,32.90
2022-12-03T23:41:08.702Z,32.08
2022-12-03T23:43:37.447Z,33.05
2022-12-03T23:46:15.081Z,34.53
2022-12-03T23:48:43.370Z,31.87
2022-12-03T23:51:17.241Z,35.90
2022-12-03T23:53:45.931Z,34.83
2022-12-03T23:56:19.788Z,33.30
2022-12-03T23:58:48.309Z,36.55
